Time;durP1;ratioP1;P1;durP2;ratioP2;P2;SDS_P1;SDS_P2;PMS_P1;PMS_P2;Temp;Humidity;BMP_temperature;BMP_pressure;BME280_temperature;BME280_humidity;BME280_pressure;Samples;Min_cycle;Max_cycle;Signal;HPM_P1;HPM_P2
2022/07/15 00:02:21;;;;;;;4.15;1.98;;;17.00;99.90;;;;;;5031230;28;20490;-66
2022/07/15 00:04:46;;;;;;;4.63;1.73;;;17.00;99.90;;;;;;5031346;28;20042;-66
2022/07/15 00:07:13;;;;;;;7.88;2.10;;;16.90;99.90;;;;;;5031479;28;20018;-66
2022/07/15 00:12:23;;;;;;;2.88;1.65;;;16.80;99.90;;;;;;5031379;28;20591;-67
2022/07/15 00:14:49;;;;;;;4.13;1.65;;;16.80;99.90;;;;;;5030232;28;20539;-67
2022/07/15 00:17:14;;;;;;;5.43;1.65;;;16.80;99.90;;;;;;5031530;28;20033;-66
2022/07/15 00:19:40;;;;;;;7.25;1.98;;;16.50;99.90;;;;;;5038840;28;20127;-67
2022/07/15 00:22:06;;;;;;;3.33;1.63;;;16.30;99.90;;;;;;5051075;28;20534;-67
2022/07/15 00:24:32;;;;;;;4.22;1.83;;;16.30;99.90;;;;;;5051394;28;20053;-66
2022/07/15 00:26:57;;;;;;;5.10;1.67;;;16.40;99.90;;;;;;5051148;28;20063;-66
2022/07/15 00:29:23;;;;;;;4.15;1.67;;;16.40;99.90;;;;;;5051157;28;20033;-66
2022/07/15 00:31:49;;;;;;;2.97;1.65;;;16.30;99.90;;;;;;5050955;28;20029;-67
2022/07/15 00:34:16;;;;;;;7.32;1.92;;;16.40;99.90;;;;;;5035891;28;20045;-67
2022/07/15 00:36:41;;;;;;;5.18;2.10;;;16.40;99.90;;;;;;5031149;28;20030;-66
2022/07/15 00:39:07;;;;;;;5.63;2.13;;;16.30;99.90;;;;;;5030785;28;20511;-66
2022/07/15 00:41:40;;;;;;;8.55;2.40;;;16.30;99.90;;;;;;5030890;28;20037;-66
2022/07/15 00:44:05;;;;;;;4.55;1.75;;;16.20;99.90;;;;;;5033244;28;20120;-66
2022/07/15 00:46:34;;;;;;;5.05;2.00;;;16.10;99.90;;;;;;5035121;28;20521;-66
2022/07/15 00:49:01;;;;;;;8.23;2.10;;;16.10;99.90;;;;;;5034713;28;20026;-67
2022/07/15 00:51:27;;;;;;;3.35;2.03;;;16.10;99.90;;;;;;5034744;28;20056;-66
2022/07/15 00:53:55;;;;;;;4.90;1.90;;;16.10;99.90;;;;;;5034498;28;20468;-66
2022/07/15 00:56:25;;;;;;;9.50;2.20;;;16.00;99.90;;;;;;5034960;28;20052;-67
2022/07/15 00:58:52;;;;;;;6.47;2.38;;;16.00;99.90;;;;;;5034698;28;20475;-66
2022/07/15 01:01:21;;;;;;;6.45;2.35;;;16.10;99.90;;;;;;5034802;28;20108;-66
2022/07/15 01:03:49;;;;;;;7.65;2.25;;;16.10;99.90;;;;;;5034228;28;20032;-67
2022/07/15 01:06:15;;;;;;;11.43;2.40;;;16.00;99.90;;;;;;5034745;28;20021;-66
2022/07/15 01:08:40;;;;;;;6.28;2.40;;;16.00;99.90;;;;;;5047890;28;20402;-66
2022/07/15 01:11:06;;;;;;;7.20;2.45;;;16.00;99.90;;;;;;5054537;28;20024;-67
2022/07/15 01:13:32;;;;;;;6.38;2.13;;;15.90;99.90;;;;;;5054374;28;20036;-67
2022/07/15 01:15:57;;;;;;;4.68;1.95;;;15.90;99.90;;;;;;5054513;28;20025;-67
2022/07/15 01:18:23;;;;;;;3.40;1.77;;;15.90;99.90;;;;;;5054329;28;20079;-67
2022/07/15 01:20:49;;;;;;;5.95;2.30;;;15.80;99.90;;;;;;5054380;28;20020;-66
2022/07/15 01:23:15;;;;;;;5.38;2.53;;;15.80;99.90;;;;;;5041716;28;20037;-67
2022/07/15 01:25:41;;;;;;;5.72;1.90;;;15.70;99.90;;;;;;5033885;28;20032;-67
2022/07/15 01:28:08;;;;;;;8.07;2.75;;;15.40;99.90;;;;;;5033355;28;20112;-66
2022/07/15 01:30:34;;;;;;;4.35;2.00;;;15.50;99.90;;;;;;5034306;28;20096;-67
2022/07/15 01:33:00;;;;;;;9.23;2.63;;;15.60;99.90;;;;;;5033995;28;20104;-67
2022/07/15 01:35:26;;;;;;;5.22;2.35;;;15.70;99.90;;;;;;5034064;28;20017;-66
2022/07/15 01:37:51;;;;;;;3.67;1.90;;;15.70;99.90;;;;;;5034213;28;20071;-67
2022/07/15 01:40:17;;;;;;;5.25;2.13;;;15.80;99.90;;;;;;5033987;28;20030;-67
2022/07/15 01:42:43;;;;;;;4.07;2.38;;;15.80;99.90;;;;;;5033750;28;20025;-66
2022/07/15 01:45:10;;;;;;;5.28;2.38;;;15.80;99.90;;;;;;5034172;28;20101;-66
2022/07/15 01:47:49;;;;;;;10.70;2.58;;;15.80;99.90;;;;;;5034062;28;20484;-66
2022/07/15 01:50:15;;;;;;;7.25;2.20;;;15.80;99.90;;;;;;5033694;28;20069;-66
2022/07/15 01:52:41;;;;;;;9.00;2.10;;;15.90;99.90;;;;;;5033658;28;20034;-67
2022/07/15 01:55:08;;;;;;;11.57;2.22;;;15.90;99.90;;;;;;5033716;28;20033;-67
2022/07/15 01:57:33;;;;;;;8.15;2.70;;;15.80;99.90;;;;;;5033718;28;20033;-67
2022/07/15 01:59:59;;;;;;;5.97;2.42;;;15.80;99.90;;;;;;5033535;28;20388;-66
2022/07/15 02:02:25;;;;;;;6.68;2.22;;;15.80;99.90;;;;;;5033035;28;20171;-66
2022/07/15 02:04:51;;;;;;;3.67;2.33;;;15.80;99.90;;;;;;5033558;28;20036;-67
2022/07/15 02:07:16;;;;;;;6.90;1.98;;;15.80;99.90;;;;;;5033776;28;20033;-67
2022/07/15 02:09:42;;;;;;;7.75;2.65;;;15.70;99.90;;;;;;5042540;28;20503;-66
2022/07/15 02:12:07;;;;;;;5.03;2.35;;;15.70;99.90;;;;;;5053282;28;20056;-67
2022/07/15 02:14:34;;;;;;;9.88;2.55;;;15.70;99.90;;;;;;5046706;28;20065;-67
2022/07/15 02:17:00;;;;;;;12.48;2.75;;;15.60;99.90;;;;;;5033370;28;20029;-66
2022/07/15 02:19:26;;;;;;;4.63;2.45;;;15.60;99.90;;;;;;5033052;28;20033;-66
2022/07/15 02:21:52;;;;;;;7.88;2.20;;;15.60;99.90;;;;;;5033145;28;20499;-66
2022/07/15 02:24:19;;;;;;;6.15;2.83;;;15.60;99.90;;;;;;5033304;28;20025;-67
2022/07/15 02:26:49;;;;;;;6.63;2.65;;;15.60;99.90;;;;;;5033343;28;20048;-66
2022/07/15 02:29:15;;;;;;;6.63;2.67;;;15.60;99.90;;;;;;5038840;28;20025;-66
2022/07/15 02:31:41;;;;;;;12.23;2.67;;;15.60;99.90;;;;;;5052883;28;20025;-67
2022/07/15 02:34:07;;;;;;;8.40;2.85;;;15.60;99.90;;;;;;5053046;28;20510;-67
2022/07/15 02:36:33;;;;;;;9.18;2.85;;;15.60;99.90;;;;;;5052916;28;20028;-67
2022/07/15 02:38:59;;;;;;;8.38;2.60;;;15.70;99.90;;;;;;5052784;28;20025;-67
2022/07/15 02:41:25;;;;;;;4.07;2.28;;;15.60;99.90;;;;;;5052578;28;20032;-67
2022/07/15 02:43:51;;;;;;;4.88;2.53;;;15.60;99.90;;;;;;5039505;28;20425;-67
2022/07/15 02:46:17;;;;;;;8.15;2.58;;;15.60;99.90;;;;;;5032594;28;20503;-67
2022/07/15 02:48:43;;;;;;;6.82;2.83;;;15.60;99.90;;;;;;5032851;28;20037;-67
2022/07/15 02:51:09;;;;;;;12.15;3.13;;;15.70;99.90;;;;;;5032686;28;20033;-66
2022/07/15 02:53:35;;;;;;;9.25;2.75;;;15.60;99.90;;;;;;5033591;28;20403;-67
2022/07/15 02:56:02;;;;;;;11.98;3.15;;;15.40;99.90;;;;;;5031406;28;20021;-66
2022/07/15 02:58:30;;;;;;;7.20;3.03;;;15.30;99.90;;;;;;5032582;28;20033;-67
2022/07/15 03:00:57;;;;;;;9.18;2.70;;;15.00;99.90;;;;;;5032465;28;20052;-67
2022/07/15 03:03:22;;;;;;;10.50;3.30;;;15.00;99.90;;;;;;5032239;28;20017;-66
2022/07/15 03:05:48;;;;;;;9.55;2.85;;;14.80;99.90;;;;;;5031971;28;20108;-66
2022/07/15 03:08:15;;;;;;;10.85;3.15;;;14.80;99.90;;;;;;5032250;28;20022;-67
2022/07/15 03:10:41;;;;;;;7.03;3.00;;;14.90;99.90;;;;;;5031984;28;20026;-67
2022/07/15 03:13:07;;;;;;;9.48;3.42;;;14.80;99.90;;;;;;5032075;28;20025;-67
2022/07/15 03:15:33;;;;;;;5.93;3.08;;;14.80;99.90;;;;;;5032166;28;20045;-66
2022/07/15 03:17:58;;;;;;;7.97;3.05;;;14.70;99.90;;;;;;5032252;28;20522;-67
2022/07/15 03:20:24;;;;;;;9.63;3.10;;;14.80;99.90;;;;;;5031726;28;20037;-67
2022/07/15 03:22:50;;;;;;;13.93;3.28;;;14.80;99.90;;;;;;5032069;28;20025;-67
2022/07/15 03:25:15;;;;;;;7.82;3.53;;;14.80;99.90;;;;;;5032235;28;20472;-67
2022/07/15 03:27:41;;;;;;;7.55;2.95;;;14.90;99.90;;;;;;5031987;28;20072;-67
2022/07/15 03:30:07;;;;;;;9.85;3.33;;;15.00;99.90;;;;;;5031846;28;20029;-67
2022/07/15 03:32:32;;;;;;;7.40;2.90;;;15.10;99.90;;;;;;5031634;28;20026;-67
2022/07/15 03:34:58;;;;;;;8.32;3.00;;;15.20;99.90;;;;;;5031871;28;20048;-67
2022/07/15 03:37:24;;;;;;;7.85;3.28;;;15.20;99.90;;;;;;5047742;28;20033;-66
2022/07/15 03:39:49;;;;;;;8.82;2.80;;;15.30;99.90;;;;;;5051469;28;20036;-67
2022/07/15 03:42:15;;;;;;;5.55;2.42;;;15.40;99.90;;;;;;5051577;28;20023;-67
2022/07/15 03:44:40;;;;;;;12.85;3.38;;;15.40;99.90;;;;;;5052106;28;20031;-67
2022/07/15 03:47:06;;;;;;;9.48;3.42;;;15.50;99.90;;;;;;5051794;28;20035;-66
2022/07/15 03:49:31;;;;;;;8.95;3.13;;;15.50;99.90;;;;;;5051619;28;20036;-66
2022/07/15 03:51:57;;;;;;;6.97;2.83;;;15.50;99.90;;;;;;5036732;28;20029;-67
2022/07/15 03:54:22;;;;;;;10.43;3.35;;;15.60;99.90;;;;;;5031787;28;20092;-66
2022/07/15 03:56:49;;;;;;;8.50;3.53;;;15.60;99.90;;;;;;5031897;28;20026;-66
2022/07/15 03:59:16;;;;;;;10.57;3.45;;;15.60;99.90;;;;;;5031628;28;20022;-67
2022/07/15 04:01:41;;;;;;;10.07;3.53;;;15.60;99.90;;;;;;5031217;28;20044;-67
2022/07/15 04:04:07;;;;;;;10.48;2.97;;;15.60;99.90;;;;;;5031415;28;20029;-67
2022/07/15 04:06:32;;;;;;;7.03;3.20;;;15.70;99.90;;;;;;5031500;28;20396;-66
2022/07/15 04:08:58;;;;;;;9.32;3.63;;;15.70;99.90;;;;;;5031507;28;20033;-66
2022/07/15 04:11:24;;;;;;;11.10;3.67;;;15.70;99.90;;;;;;5031448;28;20103;-66
2022/07/15 04:13:50;;;;;;;8.57;3.80;;;15.80;99.90;;;;;;5031586;28;20033;-67
2022/07/15 04:16:15;;;;;;;11.25;3.08;;;15.80;99.90;;;;;;5030247;28;20030;-67
2022/07/15 04:18:41;;;;;;;7.97;3.10;;;15.80;99.90;;;;;;5030151;28;20029;-67
2022/07/15 04:21:07;;;;;;;16.83;3.88;;;15.80;99.90;;;;;;5031529;28;20025;-67
2022/07/15 04:23:33;;;;;;;9.20;3.35;;;15.80;99.90;;;;;;5031205;28;20053;-67
2022/07/15 04:25:58;;;;;;;9.05;2.63;;;15.80;99.90;;;;;;5031389;28;20036;-67
2022/07/15 04:28:24;;;;;;;13.68;3.80;;;15.70;99.90;;;;;;5031103;28;20025;-67
2022/07/15 04:30:51;;;;;;;13.52;3.60;;;15.70;99.90;;;;;;5031144;28;20075;-66
2022/07/15 04:33:16;;;;;;;8.90;3.10;;;15.70;99.90;;;;;;5030768;28;20103;-66
2022/07/15 04:35:43;;;;;;;10.90;3.50;;;15.60;99.90;;;;;;5030069;28;20455;-67
2022/07/15 04:38:09;;;;;;;14.60;3.38;;;15.60;99.90;;;;;;5031222;28;20029;-67
2022/07/15 04:40:35;;;;;;;13.43;4.07;;;15.60;99.90;;;;;;5081047;22;20045;-60
2022/07/15 04:43:01;;;;;;;10.93;3.45;;;15.60;99.90;;;;;;5068995;28;20063;-61
2022/07/15 04:45:28;;;;;;;6.43;3.42;;;15.60;99.90;;;;;;5069757;28;20413;-62
2022/07/15 04:47:53;;;;;;;12.27;3.40;;;15.60;99.90;;;;;;5069533;28;20104;-61
2022/07/15 04:53:04;;;;;;;12.15;3.60;;;15.60;99.90;;;;;;5069723;28;20066;-62
2022/07/15 04:55:30;;;;;;;19.67;3.72;;;15.50;99.90;;;;;;5069438;28;20060;-62
2022/07/15 04:57:56;;;;;;;10.13;3.83;;;15.50;99.90;;;;;;5069534;28;20043;-62
2022/07/15 05:00:22;;;;;;;9.40;3.72;;;15.50;99.90;;;;;;5069627;28;20055;-62
2022/07/15 05:02:48;;;;;;;13.68;3.83;;;15.60;99.90;;;;;;5069040;28;20027;-62
2022/07/15 05:05:13;;;;;;;8.65;3.65;;;15.50;99.90;;;;;;5069656;28;20131;-62
2022/07/15 05:07:39;;;;;;;8.25;3.88;;;15.50;99.90;;;;;;5069472;28;20112;-62
2022/07/15 05:10:05;;;;;;;9.35;3.83;;;15.50;99.90;;;;;;5069567;28;20060;-62
2022/07/15 05:12:31;;;;;;;14.23;4.03;;;15.60;99.90;;;;;;5068633;28;20037;-62
2022/07/15 05:14:57;;;;;;;13.55;3.78;;;15.50;99.90;;;;;;5066041;28;20017;-61
2022/07/15 05:17:22;;;;;;;10.13;4.20;;;15.70;99.90;;;;;;5049201;28;20345;-63
2022/07/15 05:19:48;;;;;;;6.45;3.30;;;15.70;99.90;;;;;;5049731;28;20045;-62
2022/07/15 05:22:13;;;;;;;10.52;3.95;;;15.70;99.90;;;;;;5053131;28;20494;-61
2022/07/15 05:24:39;;;;;;;14.13;3.50;;;15.80;99.90;;;;;;5069507;28;20032;-60
2022/07/15 05:27:04;;;;;;;9.45;3.72;;;15.80;99.90;;;;;;5068707;28;20035;-63
2022/07/15 05:29:30;;;;;;;7.63;3.50;;;15.80;99.90;;;;;;5069833;28;20028;-61
2022/07/15 05:31:55;;;;;;;7.85;3.17;;;15.80;99.90;;;;;;5072311;28;20020;-60
2022/07/15 05:34:21;;;;;;;11.30;3.92;;;15.70;99.90;;;;;;5072887;28;20079;-61
2022/07/15 05:36:46;;;;;;;9.43;3.75;;;15.70;99.90;;;;;;5072439;28;20105;-62
2022/07/15 05:39:12;;;;;;;9.30;3.28;;;15.70;99.90;;;;;;5073003;28;20035;-62
2022/07/15 05:41:37;;;;;;;6.85;3.72;;;15.70;99.90;;;;;;5071895;28;20031;-62
2022/07/15 05:44:03;;;;;;;11.95;3.65;;;15.70;99.90;;;;;;5072812;28;20069;-62
2022/07/15 05:46:29;;;;;;;11.05;3.60;;;15.70;99.90;;;;;;5072705;28;20474;-61
2022/07/15 05:48:54;;;;;;;12.27;4.03;;;15.80;99.90;;;;;;5072711;28;20025;-62
2022/07/15 05:51:20;;;;;;;10.40;4.45;;;15.80;99.90;;;;;;5071695;28;20083;-61
2022/07/15 05:53:45;;;;;;;10.48;4.68;;;15.90;99.90;;;;;;5072943;28;20403;-62
2022/07/15 05:56:11;;;;;;;8.70;3.95;;;15.90;99.90;;;;;;5072460;28;20115;-62
2022/07/15 05:58:36;;;;;;;11.55;3.83;;;15.90;99.90;;;;;;5072062;28;20036;-62
2022/07/15 06:01:03;;;;;;;11.38;4.20;;;15.90;99.90;;;;;;5072452;28;20036;-62
2022/07/15 06:03:29;;;;;;;12.63;4.25;;;15.90;99.90;;;;;;5072010;28;20435;-62
2022/07/15 06:05:55;;;;;;;12.70;4.40;;;15.90;99.90;;;;;;5071788;28;20046;-60
2022/07/15 06:08:21;;;;;;;12.60;4.60;;;15.90;99.90;;;;;;5072733;28;20021;-61
2022/07/15 06:10:46;;;;;;;12.85;3.88;;;15.90;99.90;;;;;;5071987;28;20063;-62
2022/07/15 06:13:12;;;;;;;14.07;4.57;;;15.90;99.90;;;;;;5071944;28;20043;-61
2022/07/15 06:15:38;;;;;;;13.40;4.72;;;15.80;99.90;;;;;;5071714;28;20502;-62
2022/07/15 06:18:03;;;;;;;10.10;4.55;;;15.80;99.90;;;;;;5072123;28;20137;-62
2022/07/15 06:20:29;;;;;;;14.77;5.20;;;15.90;99.90;;;;;;5072146;28;20044;-62
2022/07/15 06:22:55;;;;;;;14.20;4.93;;;15.90;99.90;;;;;;5071338;28;20039;-62
2022/07/15 06:25:20;;;;;;;13.40;4.65;;;16.00;99.90;;;;;;5071750;28;20028;-62
2022/07/15 06:27:46;;;;;;;13.57;4.53;;;16.00;99.90;;;;;;5071546;28;20024;-62
2022/07/15 06:30:12;;;;;;;7.13;3.80;;;16.00;99.90;;;;;;5072308;28;20024;-63
2022/07/15 06:32:38;;;;;;;6.53;3.92;;;16.10;99.90;;;;;;5071335;28;20406;-62
2022/07/15 06:35:05;;;;;;;19.35;4.80;;;16.10;99.90;;;;;;5071762;28;20086;-62
2022/07/15 06:37:30;;;;;;;15.05;4.47;;;16.10;99.90;;;;;;5071362;28;20471;-62
2022/07/15 06:39:56;;;;;;;9.68;4.72;;;16.10;99.90;;;;;;5071287;28;20031;-63
2022/07/15 06:42:22;;;;;;;11.93;4.75;;;16.10;99.90;;;;;;5070383;28;20029;-62
2022/07/15 06:44:48;;;;;;;11.85;5.47;;;16.10;99.90;;;;;;5072035;28;20025;-61
2022/07/15 06:47:14;;;;;;;16.02;5.40;;;16.10;99.90;;;;;;5071323;28;20360;-61
2022/07/15 06:49:39;;;;;;;19.33;5.93;;;16.20;99.90;;;;;;5071241;28;20043;-59
2022/07/15 06:52:05;;;;;;;16.67;5.53;;;16.20;99.90;;;;;;5071092;28;20111;-61
2022/07/15 06:54:31;;;;;;;8.65;4.88;;;16.30;99.90;;;;;;5070924;28;20052;-62
2022/07/15 06:56:58;;;;;;;11.10;4.97;;;16.40;99.90;;;;;;5070854;28;20033;-60
2022/07/15 06:59:23;;;;;;;19.00;4.70;;;16.40;99.90;;;;;;5070995;28;20036;-62
2022/07/15 07:01:49;;;;;;;14.65;4.10;;;16.50;99.90;;;;;;5070882;28;20036;-62
2022/07/15 07:04:15;;;;;;;11.93;3.80;;;16.60;99.90;;;;;;5070935;28;20042;-61
2022/07/15 07:06:40;;;;;;;12.68;3.47;;;16.60;99.90;;;;;;5070858;28;20021;-62
2022/07/15 07:09:06;;;;;;;8.30;3.83;;;16.70;99.90;;;;;;5070625;28;20040;-62
2022/07/15 07:11:32;;;;;;;12.38;4.50;;;16.80;99.90;;;;;;5070969;28;20121;-62
2022/07/15 07:13:59;;;;;;;11.23;4.50;;;16.80;99.90;;;;;;5069936;28;20016;-62
2022/07/15 07:16:25;;;;;;;12.80;4.75;;;16.80;99.90;;;;;;5070873;28;20024;-62
2022/07/15 07:18:51;;;;;;;8.52;4.47;;;16.80;99.90;;;;;;5070788;28;20032;-62
2022/07/15 07:21:17;;;;;;;10.55;4.55;;;16.70;99.90;;;;;;5070645;28;20017;-61
2022/07/15 07:23:43;;;;;;;11.68;4.72;;;16.70;99.90;;;;;;5070497;28;20103;-62
2022/07/15 07:26:10;;;;;;;8.88;4.45;;;16.80;99.90;;;;;;5067580;28;20111;-61
2022/07/15 07:28:35;;;;;;;14.35;5.30;;;16.90;99.90;;;;;;5070175;28;20049;-62
2022/07/15 07:31:01;;;;;;;16.85;4.22;;;16.90;99.90;;;;;;5070588;28;20048;-61
2022/07/15 07:33:27;;;;;;;11.70;3.88;;;16.80;99.90;;;;;;5070347;28;20013;-62
2022/07/15 07:35:53;;;;;;;6.00;3.15;;;16.80;99.90;;;;;;5070180;28;20066;-62
2022/07/15 07:38:19;;;;;;;6.18;2.90;;;16.90;99.90;;;;;;5068787;28;20048;-62
2022/07/15 07:40:48;;;;;;;13.20;2.90;;;17.00;99.90;;;;;;5063193;28;20110;-62
2022/07/15 07:43:17;;;;;;;15.15;3.00;;;17.00;99.90;;;;;;5050329;28;20031;-62
2022/07/15 07:45:43;;;;;;;8.52;2.72;;;17.10;99.90;;;;;;5050020;28;20025;-63
2022/07/15 07:48:09;;;;;;;10.15;2.72;;;17.20;99.90;;;;;;5050345;28;20132;-60
2022/07/15 07:50:34;;;;;;;11.35;3.00;;;17.30;99.90;;;;;;5052857;28;20032;-62
2022/07/15 07:53:00;;;;;;;8.70;3.40;;;17.50;99.90;;;;;;5069250;28;20024;-63
2022/07/15 07:55:25;;;;;;;6.20;3.30;;;17.60;99.90;;;;;;5069292;28;20390;-62
2022/07/15 07:57:53;;;;;;;4.68;2.83;;;17.60;99.90;;;;;;5069908;28;20040;-62
2022/07/15 08:00:20;;;;;;;5.95;3.50;;;17.60;99.90;;;;;;5069669;28;20024;-62
2022/07/15 08:02:46;;;;;;;6.57;3.42;;;17.50;99.90;;;;;;5069571;28;20102;-60
2022/07/15 08:05:13;;;;;;;12.60;3.25;;;17.50;99.90;;;;;;5069402;28;20074;-62
2022/07/15 08:07:38;;;;;;;9.13;3.53;;;17.60;99.90;;;;;;5069241;28;20071;-62
2022/07/15 08:10:05;;;;;;;6.88;3.25;;;17.80;99.90;;;;;;5069679;28;20056;-60
2022/07/15 08:12:31;;;;;;;6.15;2.80;;;17.80;99.90;;;;;;5068859;28;20070;-62
2022/07/15 08:14:57;;;;;;;7.93;2.75;;;17.80;99.90;;;;;;5069854;28;20028;-62
2022/07/15 08:17:23;;;;;;;5.43;2.38;;;17.90;99.90;;;;;;5069208;28;20097;-62
2022/07/15 08:19:49;;;;;;;7.97;1.92;;;17.90;99.90;;;;;;5069480;28;20029;-62
2022/07/15 08:22:14;;;;;;;7.60;2.08;;;17.90;99.90;;;;;;5067486;28;20035;-62
2022/07/15 08:24:40;;;;;;;3.35;1.52;;;18.00;99.90;;;;;;5070167;28;20081;-62
2022/07/15 08:27:06;;;;;;;9.70;1.48;;;18.10;99.90;;;;;;5069974;28;20028;-61
2022/07/15 08:29:32;;;;;;;5.78;1.63;;;18.10;99.90;;;;;;5069260;28;20033;-61
2022/07/15 08:31:57;;;;;;;21.80;1.70;;;18.20;99.90;;;;;;5069039;28;20072;-61
2022/07/15 08:34:23;;;;;;;10.73;2.05;;;18.40;99.90;;;;;;5069514;28;20120;-60
2022/07/15 08:36:49;;;;;;;9.23;1.70;;;18.60;99.90;;;;;;5069358;28;20174;-61
2022/07/15 08:39:15;;;;;;;2.33;1.15;;;18.90;99.90;;;;;;5068872;28;20550;-62
2022/07/15 08:41:41;;;;;;;3.05;1.02;;;19.00;99.90;;;;;;5069223;28;20113;-61
2022/07/15 08:44:07;;;;;;;2.40;0.95;;;19.00;99.90;;;;;;5069340;28;20020;-62
2022/07/15 08:46:34;;;;;;;12.70;1.80;;;18.90;99.90;;;;;;5069574;28;20104;-61
2022/07/15 08:49:12;;;;;;;11.57;1.60;;;19.00;99.90;;;;;;5069259;28;20085;-61
2022/07/15 08:51:43;;;;;;;4.43;1.65;;;19.10;99.90;;;;;;5069110;28;20075;-61
2022/07/15 08:54:08;;;;;;;4.38;1.63;;;19.20;99.90;;;;;;5068418;28;20036;-62
2022/07/15 08:56:35;;;;;;;5.18;1.55;;;19.10;99.90;;;;;;5069027;28;20493;-62
2022/07/15 08:59:02;;;;;;;4.05;1.70;;;19.00;99.90;;;;;;5069097;28;20035;-60
2022/07/15 09:01:29;;;;;;;4.85;1.30;;;18.80;99.90;;;;;;5069012;28;20058;-60
2022/07/15 09:03:55;;;;;;;4.65;1.23;;;18.80;99.90;;;;;;5068918;28;20025;-62
2022/07/15 09:06:38;;;;;;;5.45;1.50;;;18.80;99.90;;;;;;5072667;28;20371;-62
2022/07/15 09:09:28;;;;;;;2.65;1.38;;;18.70;99.90;;;;;;5072267;28;20098;-60
2022/07/15 09:12:08;;;;;;;6.10;1.70;;;18.70;99.90;;;;;;5073008;28;20035;-62
2022/07/15 09:14:36;;;;;;;4.10;1.67;;;18.70;99.90;;;;;;5072611;28;20573;-62
2022/07/15 09:17:11;;;;;;;7.25;1.67;;;18.90;99.90;;;;;;5069467;28;20056;-62
2022/07/15 09:20:00;;;;;;;7.03;1.60;;;19.10;99.90;;;;;;5072631;28;20517;-62
2022/07/15 09:22:29;;;;;;;5.47;1.70;;;19.30;99.90;;;;;;5071319;28;20021;-62
2022/07/15 09:25:06;;;;;;;4.97;1.52;;;19.50;99.90;;;;;;5072864;28;20394;-61
2022/07/15 09:27:37;;;;;;;7.97;1.70;;;19.80;99.90;;;;;;5072720;28;20644;-61
2022/07/15 09:36:03;;;;;;;2.75;1.30;;;20.20;99.90;;;;;;5072437;28;20047;-62
2022/07/15 09:38:42;;;;;;;8.38;1.38;;;20.20;99.90;;;;;;5071638;28;20044;-62
2022/07/15 09:41:13;;;;;;;5.25;1.70;;;20.00;99.90;;;;;;5072124;28;20402;-62
2022/07/15 09:44:12;;;;;;;7.50;2.13;;;19.70;99.90;;;;;;5072052;28;20043;-62
2022/07/15 09:46:41;;;;;;;9.27;2.03;;;19.60;99.90;;;;;;5071783;28;20031;-62
2022/07/15 09:49:07;;;;;;;7.82;1.70;;;19.60;99.90;;;;;;5072172;28;20033;-62
2022/07/15 09:51:44;;;;;;;8.13;1.77;;;19.60;99.90;;;;;;5071434;28;20116;-62
2022/07/15 09:54:12;;;;;;;6.07;2.25;;;19.50;99.90;;;;;;5071785;28;20028;-61
2022/07/15 09:56:38;;;;;;;7.28;1.83;;;19.50;99.90;;;;;;5071618;28;20478;-62
2022/07/15 09:59:04;;;;;;;3.13;1.70;;;19.30;99.90;;;;;;5071218;28;20032;-61
2022/07/15 10:01:30;;;;;;;5.65;1.80;;;19.30;99.90;;;;;;5071673;28;20035;-61
2022/07/15 10:03:56;;;;;;;4.70;1.98;;;19.20;99.90;;;;;;5072033;28;20364;-62
2022/07/15 10:06:26;;;;;;;5.32;1.88;;;19.30;99.90;;;;;;5071487;28;20355;-62
2022/07/15 10:08:53;;;;;;;2.63;1.45;;;19.50;99.90;;;;;;5071735;28;20443;-62
2022/07/15 10:11:19;;;;;;;5.90;1.60;;;19.90;99.90;;;;;;5071370;28;20056;-62
2022/07/15 10:14:20;;;;;;;5.95;1.45;;;20.00;99.90;;;;;;5071297;28;20498;-61
2022/07/15 10:17:06;;;;;;;2.72;1.35;;;20.10;99.90;;;;;;5071472;28;20482;-62
2022/07/15 10:19:40;;;;;;;2.65;1.30;;;19.90;99.90;;;;;;5071355;28;20051;-62
2022/07/15 10:22:17;;;;;;;2.72;1.48;;;19.80;99.90;;;;;;5071349;28;20103;-62
2022/07/15 10:24:52;;;;;;;4.22;2.17;;;20.10;99.90;;;;;;5071321;28;20082;-61
2022/07/15 10:27:47;;;;;;;;;;;20.60;99.90;;;;;;5071519;28;20340;-62
2022/07/15 10:30:19;;;;;;;2.97;1.77;;;20.90;99.90;;;;;;5062131;28;19973;-62
2022/07/15 10:33:02;;;;;;;4.55;1.60;;;21.10;99.90;;;;;;5069240;28;20511;-63
2022/07/15 10:35:41;;;;;;;6.33;2.07;;;21.40;99.90;;;;;;5070921;28;20040;-61
2022/07/15 10:38:25;;;;;;;2.65;2.38;;;21.50;99.90;;;;;;5071717;28;20048;-62
2022/07/15 10:41:10;;;;;;;6.63;1.88;;;21.60;99.90;;;;;;5072048;28;20036;-63
2022/07/15 10:43:53;;;;;;;4.28;1.40;;;21.50;99.90;;;;;;5070569;28;20020;-64
2022/07/15 10:46:19;;;;;;;1.58;1.00;;;21.40;99.90;;;;;;5070760;28;20028;-64
2022/07/15 10:48:46;;;;;;;2.80;1.60;;;21.40;99.90;;;;;;5070572;28;20447;-63
2022/07/15 10:51:12;;;;;;;6.15;1.40;;;21.60;99.90;;;;;;5071383;28;20123;-64
2022/07/15 10:53:47;;;;;;;2.92;1.63;;;21.50;99.90;;;;;;5070297;28;20029;-63
2022/07/15 10:56:34;;;;;;;6.95;1.95;;;21.60;99.90;;;;;;5071198;28;20017;-63
2022/07/15 10:59:11;;;;;;;4.90;2.13;;;21.70;99.90;;;;;;5070521;28;20513;-64
2022/07/15 11:01:38;;;;;;;7.68;1.42;;;22.10;99.90;;;;;;5070898;28;20052;-63
2022/07/15 11:04:15;;;;;;;4.20;1.75;;;22.50;99.90;;;;;;5070465;28;20082;-63
2022/07/15 11:07:11;;;;;;;4.30;1.38;;;22.50;99.90;;;;;;5070457;28;20024;-63
2022/07/15 11:09:57;;;;;;;4.25;1.33;;;21.80;99.90;;;;;;5050863;28;20381;-64
2022/07/15 11:12:28;;;;;;;5.35;1.20;;;21.40;99.90;;;;;;5061561;28;20374;-64
2022/07/15 11:15:27;;;;;;;4.20;1.40;;;21.30;99.90;;;;;;5070347;28;20051;-64
2022/07/15 11:17:56;;;;;;;6.13;1.30;;;20.90;99.90;;;;;;5044192;28;20040;-64
2022/07/15 11:20:28;;;;;;;4.38;1.30;;;21.00;99.90;;;;;;5070224;28;20024;-64
2022/07/15 11:22:56;;;;;;;3.47;1.08;;;21.80;99.90;;;;;;5070276;28;20111;-64
2022/07/15 11:25:26;;;;;;;1.88;0.88;;;22.00;99.90;;;;;;5070283;28;20099;-64
2022/07/15 11:28:05;;;;;;;5.15;0.90;;;21.90;99.90;;;;;;5069497;28;20157;-62
2022/07/15 11:30:54;;;;;;;2.10;1.10;;;21.80;99.90;;;;;;5070187;28;20166;-64
2022/07/15 11:33:25;;;;;;;2.28;1.25;;;22.00;99.90;;;;;;5070255;28;20091;-64
2022/07/15 11:35:57;;;;;;;3.72;1.02;;;22.30;99.90;;;;;;5070265;28;20028;-64
2022/07/15 11:38:27;;;;;;;4.35;1.10;;;22.40;99.90;;;;;;5070163;28;20162;-63
2022/07/15 11:46:26;;;;;;;;;;;23.20;99.90;;;;;;5071271;28;20052;-63
2022/07/15 11:48:52;;;;;;;4.65;1.02;;;23.60;99.90;;;;;;5069701;28;19905;-64
2022/07/15 11:51:28;;;;;;;4.10;0.90;;;23.50;99.90;;;;;;5070265;28;20551;-63
2022/07/15 11:53:54;;;;;;;3.28;0.88;;;23.10;99.90;;;;;;5070114;28;20182;-63
2022/07/15 11:56:20;;;;;;;2.05;0.70;;;22.90;99.90;;;;;;5069896;28;20028;-63
2022/07/15 11:58:51;;;;;;;4.88;0.95;;;22.30;99.90;;;;;;5069253;28;20031;-64
2022/07/15 12:01:20;;;;;;;4.63;1.08;;;22.30;99.90;;;;;;5069627;28;20040;-63
2022/07/15 12:03:48;;;;;;;2.13;1.00;;;22.10;99.90;;;;;;5069770;28;20104;-63
2022/07/15 12:06:20;;;;;;;2.50;0.80;;;22.10;99.90;;;;;;5069875;28;20044;-63
2022/07/15 12:08:55;;;;;;;1.05;0.63;;;22.50;99.90;;;;;;5069279;28;20023;-63
2022/07/15 12:11:30;;;;;;;;;;;22.90;99.90;;;;;;5069783;28;20543;-63
2022/07/15 12:14:09;;;;;;;1.77;0.75;;;23.40;99.90;;;;;;5069682;28;19904;-64
2022/07/15 12:16:51;;;;;;;4.10;0.80;;;23.50;99.90;;;;;;5069392;28;20032;-63
2022/07/15 12:19:26;;;;;;;2.63;1.02;;;24.20;99.90;;;;;;5069477;28;20112;-64
2022/07/15 12:21:54;;;;;;;2.17;1.27;;;23.70;99.90;;;;;;5069333;28;20040;-63
2022/07/15 12:24:25;;;;;;;2.00;1.00;;;23.20;99.90;;;;;;5070079;28;20031;-63
2022/07/15 12:26:51;;;;;;;1.30;0.70;;;23.10;99.90;;;;;;5069189;28;20048;-61
2022/07/15 12:29:19;;;;;;;1.88;0.93;;;22.90;99.90;;;;;;5069507;28;20114;-63
2022/07/15 12:32:13;;;;;;;5.15;0.95;;;22.70;99.90;;;;;;5069193;28;20043;-63
2022/07/15 12:34:49;;;;;;;1.83;0.75;;;22.90;99.90;;;;;;5067947;28;20548;-63
2022/07/15 12:37:20;;;;;;;6.90;0.82;;;23.40;99.90;;;;;;5068819;28;20032;-63
2022/07/15 12:40:08;;;;;;;1.70;0.77;;;24.00;99.90;;;;;;5071607;28;20371;-63
2022/07/15 12:42:47;;;;;;;1.83;0.90;;;23.10;99.90;;;;;;5073037;28;20478;-62
2022/07/15 12:45:14;;;;;;;1.05;0.77;;;22.90;99.90;;;;;;5073206;28;20128;-63
2022/07/15 12:48:04;;;;;;;2.80;0.95;;;22.90;99.90;;;;;;5073320;28;20031;-64
2022/07/15 12:50:40;;;;;;;6.85;1.27;;;22.80;99.90;;;;;;5072925;28;20436;-64
2022/07/15 12:53:05;;;;;;;0.95;0.70;;;22.70;99.90;;;;;;5071979;28;20029;-64
2022/07/15 12:55:41;;;;;;;1.05;0.70;;;22.70;99.90;;;;;;5072386;28;20028;-63
2022/07/15 12:58:10;;;;;;;2.42;0.70;;;23.20;99.90;;;;;;5072575;28;20025;-64
2022/07/15 13:00:37;;;;;;;2.75;0.90;;;23.60;99.90;;;;;;5072938;28;20028;-64
2022/07/15 13:03:07;;;;;;;1.88;0.63;;;23.60;99.90;;;;;;5072787;28;20049;-64
2022/07/15 13:05:40;;;;;;;4.65;0.75;;;23.30;99.90;;;;;;5072911;28;20016;-64
2022/07/15 13:08:07;;;;;;;1.02;0.80;;;23.20;99.90;;;;;;5072892;28;20024;-64
2022/07/15 13:10:33;;;;;;;2.72;1.00;;;23.10;99.90;;;;;;5072787;28;20037;-64